This is the latest recevied weather packets stored in our database for station/object VE3EP-1. If no packets are shown the sender has not sent any weather packets the latest 10 day(s).
| Time | Temp. | Humidity | Pressure | Rain* | Wind** | Luminosity | Snow |
|---|---|---|---|---|---|---|---|
| 1778032329 | 6.67° C | 91% | 1012.3 hPa | 0.25 mm | - | - | - |
| 1778031730 | 7.22° C | 91% | 1012.2 hPa | 0.25 mm | - | - | - |
| 1778031128 | 7.22° C | 91% | 1012.3 hPa | 0.25 mm | - | - | - |
| 1778029929 | 7.22° C | 90% | 1011.7 hPa | 0.51 mm | - | - | - |
| 1778029328 | 7.22° C | 91% | 1011.5 hPa | 0.76 mm | - | - | - |
| 1778028729 | 7.22° C | 91% | 1011.1 hPa | 0.76 mm | - | - | - |
| 1778027528 | 7.78° C | 91% | 1011 hPa | 1.02 mm | - | - | - |
| 1778026929 | 7.78° C | 89% | 1010.8 hPa | 1.27 mm | - | - | - |
| 1778026328 | 7.78° C | 89% | 1010.8 hPa | 1.02 mm | - | - | - |
| 1778025728 | 7.78° C | 87% | 1011.1 hPa | 0.76 mm | - | - | - |
| 1778025128 | 7.78° C | 85% | 1011 hPa | 0.76 mm | - | - | - |
| 1778024528 | 7.78° C | 85% | 1010.9 hPa | 0.76 mm | - | - | - |
| 1778023928 | 7.78° C | 86% | 1010.7 hPa | 0.76 mm | - | - | - |
| 1778023328 | 7.78° C | 85% | 1010.4 hPa | 0.76 mm | - | - | - |
| 1778022128 | 8.33° C | 84% | 1010 hPa | 1.02 mm | - | - | - |
| 1778021528 | 8.33° C | 85% | 1010.4 hPa | 1.02 mm | - | - | - |
| 1778020929 | 8.89° C | 84% | 1010.2 hPa | 0.76 mm | - | - | - |
| 1778020328 | 9.44° C | 83% | 1010.1 hPa | 0.51 mm | - | - | - |
| 1778019728 | 10° C | 81% | 1010.1 hPa | 0.25 mm | - | - | - |
| 1778019131 | 10° C | 78% | 1009.9 hPa | 0.25 mm | - | - | - |
| 1778018528 | 11.11° C | 73% | 1009.6 hPa | 0 mm | - | - | - |
| 1778017928 | 12.78° C | 65% | 1009 hPa | 0 mm | - | - | - |
| 1778017329 | 12.78° C | 67% | 1008.8 hPa | 0 mm | - | - | - |
| 1778016729 | 12.22° C | 79% | 1008.7 hPa | 0 mm | - | - | - |
| 1778016128 | 11.67° C | 78% | 1008.4 hPa | 0 mm | - | - | - |
* Rain latest hour (hover to see other rain measurements)
** Current wind speed in m/s (hover to see current wind gust speed)